Time;durP1;ratioP1;P1;durP2;ratioP2;P2;SDS_P1;SDS_P2;PMS_P1;PMS_P2;Temp;Humidity;BMP_temperature;BMP_pressure;BME280_temperature;BME280_humidity;BME280_pressure;Samples;Min_cycle;Max_cycle;Signal;HPM_P1;HPM_P2
2023/08/15 00:00:21;;;;;;;22.25;19.45;;;;;;;23.68;54.23;100343.31;4992434;28;97164;-81
2023/08/15 00:02:47;;;;;;;20.85;19.25;;;;;;;23.78;53.92;100345.19;4989353;28;97049;-81
2023/08/15 00:05:12;;;;;;;20.70;19.17;;;;;;;23.70;53.75;100336.00;4988461;28;98982;-82
2023/08/15 00:07:56;;;;;;;20.50;18.42;;;;;;;23.83;53.20;100343.81;4991556;28;96828;-81
2023/08/15 00:10:22;;;;;;;20.23;18.63;;;;;;;23.85;53.06;100340.97;4982019;28;96806;-81
2023/08/15 00:12:47;;;;;;;19.92;18.52;;;;;;;23.91;52.64;100343.09;4991898;28;96864;-80
2023/08/15 00:15:13;;;;;;;20.13;18.25;;;;;;;23.95;52.59;100337.34;4993859;28;98699;-81
2023/08/15 00:17:39;;;;;;;20.33;18.42;;;;;;;24.03;52.28;100336.66;4993802;28;98662;-81
2023/08/15 00:20:08;;;;;;;20.27;18.73;;;;;;;24.18;51.90;100334.44;4991380;28;96767;-82
2023/08/15 00:22:33;;;;;;;19.50;18.10;;;;;;;24.23;51.36;100334.00;4994575;28;96806;-81
2023/08/15 00:24:59;;;;;;;20.80;18.75;;;;;;;24.29;51.23;100334.31;4990095;28;98808;-81
2023/08/15 00:27:24;;;;;;;20.80;18.88;;;;;;;24.32;51.54;100334.00;4990233;28;98785;-81
2023/08/15 00:29:50;;;;;;;20.98;19.23;;;;;;;24.27;51.48;100325.53;4984430;28;96735;-81
2023/08/15 00:32:15;;;;;;;19.75;18.08;;;;;;;24.17;51.93;100330.91;4987283;28;96962;-81
2023/08/15 00:34:42;;;;;;;20.73;18.60;;;;;;;24.15;51.95;100327.50;4981272;28;96950;-81
2023/08/15 00:37:08;;;;;;;19.38;17.73;;;;;;;24.21;51.73;100327.94;4983523;28;98360;-82
2023/08/15 00:39:33;;;;;;;19.13;17.77;;;;;;;24.22;51.32;100329.63;4976570;28;97274;-81
2023/08/15 00:42:00;;;;;;;19.83;18.27;;;;;;;24.28;51.19;100324.53;4984580;28;96866;-81
2023/08/15 00:44:25;;;;;;;19.70;18.15;;;;;;;24.21;51.45;100331.47;4974885;28;100822;-81
2023/08/15 00:46:51;;;;;;;20.00;18.20;;;;;;;24.31;51.55;100328.78;4993825;28;98886;-81
2023/08/15 00:49:17;;;;;;;19.80;18.40;;;;;;;24.17;52.48;100325.53;4960040;28;96815;-81
2023/08/15 00:51:43;;;;;;;19.60;18.30;;;;;;;23.89;53.67;100318.28;4975585;28;96793;-81
2023/08/15 00:54:08;;;;;;;20.73;19.05;;;;;;;23.63;54.12;100315.22;4993889;28;99009;-81
2023/08/15 00:56:34;;;;;;;21.15;19.00;;;;;;;23.50;54.84;100323.50;4975741;28;98467;-81
2023/08/15 00:59:01;;;;;;;19.17;17.85;;;;;;;23.36;55.20;100326.53;4955988;28;96903;-81
2023/08/15 01:01:26;;;;;;;20.10;18.70;;;;;;;23.31;55.29;100318.06;4987832;28;97050;-81
2023/08/15 01:03:52;;;;;;;21.15;19.23;;;;;;;23.31;55.68;100316.25;4975405;28;100483;-81
2023/08/15 01:06:17;;;;;;;21.73;19.58;;;;;;;23.16;56.03;100309.56;4992693;28;98707;-81
2023/08/15 01:08:43;;;;;;;21.40;19.52;;;;;;;22.98;56.50;100315.53;4973981;28;96901;-81
2023/08/15 01:11:09;;;;;;;20.30;18.23;;;;;;;22.95;56.73;100314.91;4991367;28;96853;-82
2023/08/15 01:13:49;;;;;;;21.02;19.40;;;;;;;22.98;56.72;100314.66;4986905;28;99025;-82
2023/08/15 01:16:21;;;;;;;25.60;19.83;;;;;;;22.93;56.92;100312.34;4989537;28;97320;-81
2023/08/15 01:19:09;;;;;;;20.65;19.05;;;;;;;23.03;56.52;100309.75;4989877;28;96719;-81
2023/08/15 01:21:42;;;;;;;20.27;18.73;;;;;;;23.25;55.90;100308.75;4976019;28;96807;-81
2023/08/15 01:24:08;;;;;;;21.05;19.33;;;;;;;23.16;56.16;100313.06;4984900;28;99184;-81
2023/08/15 01:26:33;;;;;;;21.45;19.88;;;;;;;23.34;55.78;100309.78;4974983;28;98738;-81
2023/08/15 01:28:59;;;;;;;21.10;19.45;;;;;;;23.47;55.39;100315.72;4975744;28;96710;-81
2023/08/15 01:31:36;;;;;;;20.15;18.58;;;;;;;23.53;55.31;100311.66;4975717;28;97239;-81
2023/08/15 01:34:14;;;;;;;22.05;19.55;;;;;;;23.31;55.56;100310.03;4975372;28;101127;-81
2023/08/15 01:36:46;;;;;;;20.35;18.60;;;;;;;23.38;55.38;100314.72;4963798;28;98716;-81
2023/08/15 01:39:14;;;;;;;19.95;18.38;;;;;;;23.21;55.47;100315.34;4993399;28;97419;-81
2023/08/15 01:41:41;;;;;;;20.27;18.65;;;;;;;23.14;55.40;100304.31;4992638;28;96884;-81
2023/08/15 01:44:07;;;;;;;20.40;18.80;;;;;;;23.12;55.41;100305.44;4956858;28;100688;-81
2023/08/15 01:46:33;;;;;;;20.67;18.83;;;;;;;23.13;55.37;100293.75;4958424;28;100169;-81
2023/08/15 01:48:59;;;;;;;20.42;18.60;;;;;;;23.08;55.48;100296.81;4993266;28;96977;-81
2023/08/15 01:51:25;;;;;;;21.67;19.65;;;;;;;22.98;55.49;100286.06;4975687;28;96878;-81
2023/08/15 01:53:50;;;;;;;20.52;18.83;;;;;;;23.13;55.25;100307.16;4991292;28;98796;-81
2023/08/15 01:56:16;;;;;;;20.52;18.77;;;;;;;23.01;55.58;100304.53;4980018;28;98473;-82
2023/08/15 01:58:41;;;;;;;20.95;19.10;;;;;;;22.95;55.57;100310.44;4965713;28;96819;-81
2023/08/15 02:01:07;;;;;;;21.33;19.73;;;;;;;22.85;55.80;100314.84;4968594;28;96980;-82
2023/08/15 02:03:33;;;;;;;19.08;17.77;;;;;;;22.82;55.65;100307.06;4980825;28;98645;-82
2023/08/15 02:05:58;;;;;;;20.98;18.90;;;;;;;22.81;55.79;100316.94;4975925;28;98863;-81
2023/08/15 02:08:24;;;;;;;20.70;18.90;;;;;;;22.76;55.65;100307.59;4976834;28;96949;-82
2023/08/15 02:10:50;;;;;;;20.75;19.02;;;;;;;22.76;55.69;100305.75;4974306;28;97186;-81
2023/08/15 02:13:16;;;;;;;20.85;19.10;;;;;;;22.73;55.39;100295.31;4987076;28;99030;-82
2023/08/15 02:15:42;;;;;;;20.00;18.17;;;;;;;22.81;54.92;100298.19;4992350;28;98677;-81
2023/08/15 02:18:07;;;;;;;19.83;18.20;;;;;;;22.89;54.41;100291.31;4974979;28;96753;-82
2023/08/15 02:20:33;;;;;;;21.38;18.40;;;;;;;22.95;53.95;100302.41;4989785;28;96963;-81
2023/08/15 02:22:59;;;;;;;20.25;18.42;;;;;;;22.99;53.43;100295.78;4972807;28;100987;-82
2023/08/15 02:25:24;;;;;;;19.48;18.10;;;;;;;23.01;53.23;100288.47;4983075;28;99018;-82
2023/08/15 02:27:51;;;;;;;19.27;17.85;;;;;;;23.10;52.95;100294.03;4985128;28;97087;-82
2023/08/15 02:30:16;;;;;;;19.80;18.08;;;;;;;23.09;52.98;100295.00;4993309;28;98422;-81
2023/08/15 02:32:44;;;;;;;20.58;18.70;;;;;;;23.13;52.67;100291.09;4974243;28;100860;-81
2023/08/15 02:35:11;;;;;;;20.45;18.33;;;;;;;23.08;52.90;100293.31;4991834;28;98742;-81
2023/08/15 02:37:37;;;;;;;20.33;18.45;;;;;;;22.95;53.33;100286.34;4972158;28;96862;-81
2023/08/15 02:40:05;;;;;;;20.08;18.48;;;;;;;22.93;53.69;100282.06;4973341;28;96890;-81
2023/08/15 02:42:32;;;;;;;20.48;18.88;;;;;;;22.85;54.02;100281.88;4987742;28;98822;-81
2023/08/15 02:44:57;;;;;;;19.20;17.75;;;;;;;22.83;54.03;100282.00;4991928;28;98427;-81
2023/08/15 02:47:23;;;;;;;19.67;18.30;;;;;;;22.76;53.86;100284.34;4989861;28;98326;-82
2023/08/15 02:49:48;;;;;;;19.65;18.20;;;;;;;22.75;53.99;100292.53;4992008;28;96934;-81
2023/08/15 02:52:14;;;;;;;19.92;18.42;;;;;;;22.75;54.26;100287.19;4985129;28;99208;-81
2023/08/15 02:54:39;;;;;;;20.00;18.58;;;;;;;22.76;54.25;100295.06;4980387;28;98720;-81
2023/08/15 02:57:05;;;;;;;21.17;19.30;;;;;;;22.88;54.03;100292.31;4990179;28;96863;-81
2023/08/15 02:59:30;;;;;;;19.83;18.42;;;;;;;22.91;54.29;100290.22;4977178;28;96917;-81
2023/08/15 03:01:56;;;;;;;20.58;19.15;;;;;;;22.96;54.64;100297.88;4973038;28;100766;-81
2023/08/15 03:04:21;;;;;;;20.45;18.77;;;;;;;23.05;54.22;100287.22;4973430;28;100135;-81
2023/08/15 03:06:47;;;;;;;19.88;18.35;;;;;;;22.81;54.98;100292.00;4990505;28;96822;-82
2023/08/15 03:09:14;;;;;;;19.85;18.27;;;;;;;22.64;55.30;100289.91;4981024;28;97432;-81
2023/08/15 03:11:39;;;;;;;20.90;18.95;;;;;;;22.55;55.54;100289.72;4991496;28;97741;-81
2023/08/15 03:14:05;;;;;;;20.15;18.55;;;;;;;22.69;55.33;100293.91;4972895;28;98720;-82
2023/08/15 03:16:31;;;;;;;22.42;20.23;;;;;;;22.54;55.54;100288.03;4971883;28;97201;-82
2023/08/15 03:18:57;;;;;;;19.77;18.38;;;;;;;22.51;55.57;100301.63;4974001;28;98184;-82
2023/08/15 03:21:22;;;;;;;20.23;18.52;;;;;;;22.71;55.03;100299.09;4970408;28;100915;-81
2023/08/15 03:23:48;;;;;;;21.17;19.30;;;;;;;22.52;55.69;100298.00;4973843;28;100243;-82
2023/08/15 03:26:14;;;;;;;21.20;19.40;;;;;;;22.54;55.67;100309.44;4984160;28;96763;-81
2023/08/15 03:28:39;;;;;;;20.92;19.20;;;;;;;22.37;56.13;100302.81;4953285;28;97099;-81
2023/08/15 03:31:06;;;;;;;20.08;18.73;;;;;;;22.38;56.24;100309.84;4973692;28;100773;-82
2023/08/15 03:33:37;;;;;;;21.15;19.38;;;;;;;22.28;56.70;100298.25;4973399;28;99494;-82
2023/08/15 03:36:03;;;;;;;20.98;19.33;;;;;;;22.24;56.64;100299.44;4971267;28;96829;-82
2023/08/15 03:38:29;;;;;;;20.25;18.50;;;;;;;22.11;56.86;100299.59;4957749;28;96868;-82
2023/08/15 03:41:02;;;;;;;21.92;19.83;;;;;;;22.25;56.75;100302.97;4972172;28;100723;-82
2023/08/15 03:43:30;;;;;;;19.63;17.83;;;;;;;22.25;56.74;100303.84;4982306;28;97144;-82
2023/08/15 03:45:55;;;;;;;19.17;17.55;;;;;;;22.44;56.19;100315.66;4972813;28;96763;-82
2023/08/15 03:48:21;;;;;;;19.17;17.88;;;;;;;22.54;55.70;100308.56;4981646;28;96801;-82
2023/08/15 03:50:46;;;;;;;19.63;17.73;;;;;;;22.67;55.57;100319.09;4989261;28;98926;-82
2023/08/15 03:53:12;;;;;;;19.70;18.05;;;;;;;22.63;55.58;100322.97;4984684;28;98696;-82
2023/08/15 03:55:37;;;;;;;19.70;18.20;;;;;;;22.70;55.55;100322.34;4966756;28;97503;-82
2023/08/15 03:58:03;;;;;;;22.00;18.75;;;;;;;22.72;55.72;100324.88;4991714;28;97401;-82
2023/08/15 04:00:28;;;;;;;19.13;17.63;;;;;;;22.78;55.75;100329.72;4991185;28;98999;-82
2023/08/15 04:02:54;;;;;;;19.05;17.70;;;;;;;22.72;55.76;100319.50;4981876;28;98505;-82
2023/08/15 04:05:19;;;;;;;20.75;19.00;;;;;;;22.56;55.99;100326.16;4976850;28;97035;-82
2023/08/15 04:07:45;;;;;;;19.73;18.33;;;;;;;22.63;55.82;100322.97;4965284;28;96939;-83
2023/08/15 04:10:12;;;;;;;19.02;17.35;;;;;;;22.69;55.83;100325.13;4970568;28;98727;-82
2023/08/15 04:12:37;;;;;;;24.02;17.73;;;;;;;22.74;56.03;100336.31;4963011;28;100044;-82
2023/08/15 04:15:04;;;;;;;21.63;19.42;;;;;;;22.72;56.11;100331.09;4970600;28;97363;-82
2023/08/15 04:17:30;;;;;;;18.60;17.02;;;;;;;22.83;55.97;100335.50;4973602;28;96808;-82
2023/08/15 04:19:55;;;;;;;19.83;18.10;;;;;;;22.80;55.87;100330.41;4967918;28;98821;-82
2023/08/15 04:22:21;;;;;;;19.10;17.80;;;;;;;22.86;55.73;100339.75;4972640;28;99895;-82
2023/08/15 04:24:46;;;;;;;21.67;19.55;;;;;;;22.87;55.69;100342.31;4964795;28;96956;-82
2023/08/15 04:27:12;;;;;;;20.55;18.83;;;;;;;22.94;55.79;100351.50;4985400;28;96949;-82
2023/08/15 04:29:38;;;;;;;20.23;18.45;;;;;;;22.97;55.71;100337.88;4973104;28;100366;-82
2023/08/15 04:32:04;;;;;;;19.27;17.60;;;;;;;23.13;55.58;100340.13;4990294;28;97234;-81
2023/08/15 04:34:29;;;;;;;20.63;18.67;;;;;;;23.30;55.08;100341.34;4976139;28;96684;-82
2023/08/15 04:36:55;;;;;;;19.75;18.23;;;;;;;23.45;54.54;100342.66;4976631;28;97000;-82
2023/08/15 04:39:23;;;;;;;19.95;18.13;;;;;;;23.60;54.41;100339.63;4972362;28;99148;-82
2023/08/15 04:41:49;;;;;;;22.75;18.80;;;;;;;23.79;54.06;100350.41;4976030;28;98767;-82
2023/08/15 04:44:14;;;;;;;19.60;18.00;;;;;;;23.98;53.55;100346.09;4991807;28;96778;-82
2023/08/15 04:46:40;;;;;;;19.95;18.15;;;;;;;24.20;53.46;100355.72;4976207;28;96936;-82
2023/08/15 04:49:05;;;;;;;20.65;18.90;;;;;;;24.23;53.20;100342.03;4975909;28;100732;-82
2023/08/15 04:51:31;;;;;;;21.20;19.65;;;;;;;24.49;52.91;100343.19;4975881;28;100405;-82
2023/08/15 04:53:57;;;;;;;19.60;18.10;;;;;;;24.73;52.55;100341.94;4976186;28;96869;-82
2023/08/15 04:56:24;;;;;;;25.35;18.08;;;;;;;24.96;52.15;100337.94;4976513;28;96885;-82
2023/08/15 04:58:49;;;;;;;21.00;19.20;;;;;;;25.12;51.99;100336.50;4994174;28;96841;-82
2023/08/15 05:01:15;;;;;;;20.55;18.92;;;;;;;25.29;51.40;100335.75;4975926;28;98978;-82
2023/08/15 05:03:41;;;;;;;21.02;19.33;;;;;;;25.49;50.82;100334.69;4975435;28;97075;-82
2023/08/15 05:06:07;;;;;;;19.75;18.10;;;;;;;25.62;50.72;100334.34;4964948;28;97045;-82
2023/08/15 05:08:34;;;;;;;19.60;18.02;;;;;;;25.79;50.57;100339.91;4960337;28;100043;-82
2023/08/15 05:11:00;;;;;;;21.42;19.65;;;;;;;25.88;49.74;100328.28;4975450;28;100612;-82
2023/08/15 05:13:26;;;;;;;20.73;19.02;;;;;;;26.14;49.76;100339.16;4990091;28;98664;-82
2023/08/15 05:15:52;;;;;;;19.80;18.40;;;;;;;26.35;49.12;100345.06;4993614;28;96862;-82
2023/08/15 05:18:20;;;;;;;21.70;19.50;;;;;;;26.67;48.18;100348.25;4972328;28;100209;-81
2023/08/15 05:20:46;;;;;;;25.25;19.92;;;;;;;26.90;47.28;100344.06;4989322;28;98489;-82
2023/08/15 05:23:12;;;;;;;21.52;19.92;;;;;;;27.33;46.91;100347.75;4990163;28;96755;-82
2023/08/15 05:25:37;;;;;;;19.80;18.27;;;;;;;27.79;45.50;100347.50;4973805;28;97536;-82
2023/08/15 05:28:06;;;;;;;21.02;19.00;;;;;;;28.46;44.18;100348.34;4974860;28;100621;-82
2023/08/15 05:30:31;;;;;;;21.90;19.98;;;;;;;29.14;42.18;100354.41;4993290;28;98687;-82
2023/08/15 05:32:58;;;;;;;20.25;18.23;;;;;;;31.33;38.93;100348.66;4975488;28;96916;-82
2023/08/15 05:35:24;;;;;;;19.40;17.90;;;;;;;33.98;34.57;100354.06;4983572;28;96835;-82
2023/08/15 05:37:49;;;;;;;19.73;18.08;;;;;;;36.22;31.39;100359.53;4982695;28;99152;-82
2023/08/15 05:40:15;;;;;;;20.33;18.75;;;;;;;37.92;29.64;100357.56;4983301;28;99214;-82
2023/08/15 05:42:41;;;;;;;20.38;18.63;;;;;;;39.00;28.35;100356.56;4971348;28;97035;-83
2023/08/15 05:45:08;;;;;;;19.02;17.42;;;;;;;39.97;27.19;100355.97;4984561;28;97375;-82
2023/08/15 05:47:34;;;;;;;19.77;18.08;;;;;;;40.76;25.77;100351.59;4976715;28;99132;-83
2023/08/15 05:50:00;;;;;;;19.00;17.50;;;;;;;41.56;24.73;100351.13;4982170;28;98647;-83
2023/08/15 05:52:26;;;;;;;19.70;18.05;;;;;;;42.22;23.62;100364.03;4992613;28;96756;-83
2023/08/15 05:54:52;;;;;;;20.92;19.45;;;;;;;42.94;23.01;100362.75;4985827;28;96846;-83
2023/08/15 05:57:17;;;;;;;18.58;17.00;;;;;;;43.68;22.49;100361.78;4982378;28;98956;-83
2023/08/15 05:59:43;;;;;;;18.85;17.45;;;;;;;44.10;21.90;100365.53;4979461;28;98641;-83
2023/08/15 06:02:09;;;;;;;20.83;19.23;;;;;;;44.68;21.54;100358.66;4981566;28;97642;-83
2023/08/15 06:04:35;;;;;;;19.27;18.00;;;;;;;45.27;21.10;100362.78;4976052;28;97318;-83
2023/08/15 06:07:02;;;;;;;18.77;17.38;;;;;;;45.62;20.37;100369.31;4977153;28;99199;-83
2023/08/15 06:09:28;;;;;;;18.98;17.77;;;;;;;46.34;20.19;100360.59;4966225;28;98464;-83
2023/08/15 06:11:54;;;;;;;20.15;18.75;;;;;;;46.83;19.65;100359.63;4976253;28;96759;-83
2023/08/15 06:14:22;;;;;;;19.33;18.02;;;;;;;46.66;19.28;100351.72;4982302;28;96820;-83
2023/08/15 06:16:48;;;;;;;18.37;17.13;;;;;;;47.21;18.80;100352.28;4990228;28;98831;-83
2023/08/15 06:19:14;;;;;;;18.42;17.23;;;;;;;45.48;19.75;100359.91;4992539;28;98546;-83
2023/08/15 06:21:42;;;;;;;18.25;17.05;;;;;;;44.07;20.51;100347.53;4989559;28;96757;-83
2023/08/15 06:24:09;;;;;;;19.17;17.65;;;;;;;44.07;20.79;100358.59;4992348;28;96846;-83
2023/08/15 06:26:35;;;;;;;19.55;18.25;;;;;;;44.78;20.09;100357.88;4987582;28;98245;-83
2023/08/15 06:29:00;;;;;;;18.25;17.15;;;;;;;45.78;19.48;100361.72;4983710;28;98514;-83
2023/08/15 06:31:26;;;;;;;18.05;16.75;;;;;;;46.15;19.00;100364.03;4979852;28;97329;-83
2023/08/15 06:33:51;;;;;;;18.60;17.50;;;;;;;46.85;18.63;100352.66;4979719;28;97286;-83
2023/08/15 06:36:17;;;;;;;18.67;17.52;;;;;;;47.26;17.73;100351.41;4978016;28;99360;-83
2023/08/15 06:38:42;;;;;;;19.02;17.63;;;;;;;47.39;18.04;100345.09;4975402;28;98465;-83
2023/08/15 06:41:08;;;;;;;19.40;18.10;;;;;;;46.24;18.64;100361.47;4976009;28;96783;-83
2023/08/15 06:43:33;;;;;;;18.33;17.10;;;;;;;48.43;17.54;100360.06;4973780;28;96852;-82
2023/08/15 06:46:00;;;;;;;17.65;16.48;;;;;;;48.70;17.48;100351.84;4977120;28;99091;-83
2023/08/15 06:48:25;;;;;;;18.08;16.63;;;;;;;50.61;15.88;100343.78;4992164;28;98686;-83
2023/08/15 06:50:51;;;;;;;18.23;17.02;;;;;;;51.13;15.79;100347.69;4988499;28;98491;-83
2023/08/15 06:53:16;;;;;;;17.40;16.30;;;;;;;50.32;15.82;100353.47;4985319;28;96977;-83
2023/08/15 06:55:42;;;;;;;18.38;17.10;;;;;;;49.91;16.25;100348.00;4979896;28;98710;-83
2023/08/15 06:58:07;;;;;;;17.55;16.30;;;;;;;48.97;16.67;100355.81;4979594;28;98827;-83
2023/08/15 07:00:33;;;;;;;20.25;18.73;;;;;;;48.95;16.63;100349.72;4982944;28;96812;-83
2023/08/15 07:02:58;;;;;;;19.10;17.75;;;;;;;51.09;14.98;100343.91;4981406;28;96865;-83
2023/08/15 07:05:24;;;;;;;17.75;16.45;;;;;;;49.94;15.88;100353.81;4976845;28;98968;-83
2023/08/15 07:07:49;;;;;;;19.75;18.45;;;;;;;51.47;14.53;100348.16;4991703;28;98484;-83
2023/08/15 07:10:15;;;;;;;20.70;19.15;;;;;;;51.86;14.40;100349.19;4978167;28;98686;-83
2023/08/15 07:12:40;;;;;;;19.30;17.90;;;;;;;52.84;14.20;100347.63;4992069;28;96831;-83
2023/08/15 07:15:06;;;;;;;18.45;17.00;;;;;;;52.39;14.16;100356.44;4991207;28;99222;-82
2023/08/15 07:17:32;;;;;;;18.35;16.98;;;;;;;53.34;13.84;100356.13;4981047;28;98633;-83
2023/08/15 07:19:58;;;;;;;19.95;18.48;;;;;;;52.46;14.36;100348.38;4982095;28;96752;-84
2023/08/15 07:22:23;;;;;;;19.20;17.88;;;;;;;51.88;14.52;100350.53;4991882;28;97153;-83
2023/08/15 07:24:49;;;;;;;17.88;16.88;;;;;;;50.44;15.51;100350.09;4988001;28;98949;-83
2023/08/15 07:27:14;;;;;;;17.45;16.45;;;;;;;51.49;14.82;100355.03;4983536;28;99122;-83
2023/08/15 07:29:40;;;;;;;18.13;17.02;;;;;;;51.90;14.29;100358.56;4981292;28;96596;-83
2023/08/15 07:32:08;;;;;;;18.50;17.20;;;;;;;51.90;14.46;100359.41;4979159;28;96831;-84
2023/08/15 07:34:33;;;;;;;18.50;17.40;;;;;;;50.02;15.83;100350.28;4978107;28;98917;-83
2023/08/15 07:36:59;;;;;;;18.13;16.80;;;;;;;50.11;15.52;100349.53;4975302;28;98736;-83
2023/08/15 07:39:24;;;;;;;18.55;17.17;;;;;;;52.24;14.41;100352.16;4988817;28;96778;-83
2023/08/15 07:41:50;;;;;;;19.27;18.08;;;;;;;52.46;14.22;100348.38;4981556;28;96963;-83
2023/08/15 07:44:15;;;;;;;18.98;17.77;;;;;;;52.44;14.48;100350.69;4985064;28;98835;-83
2023/08/15 07:46:41;;;;;;;19.52;18.30;;;;;;;55.98;12.07;100343.31;4963737;28;98824;-82
2023/08/15 07:49:06;;;;;;;19.10;17.67;;;;;;;54.34;12.89;100358.38;4990436;28;97770;-83
2023/08/15 07:51:32;;;;;;;18.30;17.10;;;;;;;56.63;12.18;100349.53;4991459;28;97009;-83
2023/08/15 07:53:57;;;;;;;19.27;17.98;;;;;;;56.59;12.07;100345.81;4986545;28;98953;-83
2023/08/15 07:56:23;;;;;;;19.83;18.52;;;;;;;57.68;10.89;100352.88;4978363;28;99217;-83
2023/08/15 07:58:48;;;;;;;19.00;17.80;;;;;;;60.41;9.98;100354.06;4981999;28;96704;-84
2023/08/15 08:01:14;;;;;;;19.27;17.83;;;;;;;59.50;10.40;100350.53;4983117;28;96957;-83
2023/08/15 08:03:42;;;;;;;19.05;17.85;;;;;;;55.57;11.80;100351.69;4979915;28;98473;-83
2023/08/15 08:06:08;;;;;;;20.30;18.88;;;;;;;55.09;12.40;100367.44;4968658;28;98768;-83
2023/08/15 08:08:34;;;;;;;22.63;21.13;;;;;;;54.31;12.53;100356.25;4994225;28;97922;-83
2023/08/15 08:10:59;;;;;;;21.02;19.23;;;;;;;55.31;12.61;100354.09;4994999;28;96832;-83
2023/08/15 08:13:25;;;;;;;21.17;19.67;;;;;;;53.44;13.31;100345.69;4993392;28;99345;-82
2023/08/15 08:15:51;;;;;;;20.60;19.30;;;;;;;56.03;12.03;100346.69;4992252;28;98482;-83
2023/08/15 08:18:17;;;;;;;21.63;20.20;;;;;;;55.73;12.00;100348.97;4991211;28;97353;-83
2023/08/15 08:20:43;;;;;;;21.92;19.65;;;;;;;56.59;11.10;100348.63;4985107;28;96871;-83
2023/08/15 08:23:09;;;;;;;20.73;19.43;;;;;;;58.88;10.40;100344.31;4991024;28;98666;-83
2023/08/15 08:25:35;;;;;;;20.33;18.92;;;;;;;58.55;10.49;100345.75;4992254;28;99010;-84
2023/08/15 08:28:01;;;;;;;22.05;20.65;;;;;;;56.75;11.60;100345.81;4991232;28;97094;-84
2023/08/15 08:30:29;;;;;;;20.90;19.70;;;;;;;55.73;11.65;100348.97;4990877;28;96931;-83
2023/08/15 08:32:54;;;;;;;21.50;20.20;;;;;;;55.34;11.98;100345.78;4990367;28;98901;-84
2023/08/15 08:35:21;;;;;;;20.55;19.25;;;;;;;55.58;11.87;100339.28;4978693;28;99061;-84
2023/08/15 08:37:47;;;;;;;23.10;21.45;;;;;;;56.68;10.56;100332.38;4994816;28;96716;-83
2023/08/15 08:40:14;;;;;;;21.83;20.48;;;;;;;56.36;11.91;100337.13;4994589;28;96915;-82
2023/08/15 08:42:44;;;;;;;23.77;22.17;;;;;;;56.66;11.01;100331.09;4963632;28;98697;-82
2023/08/15 08:45:11;;;;;;;21.67;20.30;;;;;;;56.85;10.74;100328.38;4993606;28;98492;-82
2023/08/15 08:47:40;;;;;;;;;;;;;;;57.37;10.63;100332.84;4992944;28;97188;-82
2023/08/15 08:50:09;;;;;;;23.38;21.98;;;;;;;58.79;9.67;100332.44;4992711;28;96921;-82
2023/08/15 08:52:39;;;;;;;22.13;20.83;;;;;;;56.47;10.96;100328.94;4986031;28;98747;-82
2023/08/15 08:55:05;;;;;;;22.73;21.33;;;;;;;58.51;9.90;100329.94;4951154;28;98757;-82
2023/08/15 08:57:32;;;;;;;23.42;22.02;;;;;;;59.61;9.63;100325.22;4988486;28;96929;-82
2023/08/15 09:00:00;;;;;;;23.20;21.60;;;;;;;58.80;9.99;100322.75;4981855;28;96913;-82
2023/08/15 09:02:25;;;;;;;21.63;20.08;;;;;;;59.05;9.46;100321.16;4969433;28;98761;-82
2023/08/15 09:04:53;;;;;;;22.73;21.33;;;;;;;58.47;10.16;100322.19;4976898;28;98643;-82
2023/08/15 09:07:19;;;;;;;22.52;21.13;;;;;;;58.03;9.88;100314.09;4974658;28;96723;-82
2023/08/15 09:09:44;;;;;;;21.45;20.15;;;;;;;56.47;11.25;100310.06;4987574;28;96807;-82
2023/08/15 09:12:39;;;;;;;22.10;20.42;;;;;;;54.24;12.02;100323.91;4992448;28;98759;-82
2023/08/15 09:15:09;;;;;;;20.90;19.50;;;;;;;54.82;11.88;100320.34;4988610;28;98463;-82
2023/08/15 09:17:35;;;;;;;21.35;20.00;;;;;;;51.16;14.02;100319.09;4990587;28;96930;-82
2023/08/15 09:20:19;;;;;;;19.33;18.00;;;;;;;49.25;15.16;100323.22;4985107;28;97526;-82
2023/08/15 09:22:46;;;;;;;18.42;17.25;;;;;;;47.83;16.50;100322.63;4992879;28;99509;-82
2023/08/15 09:25:14;;;;;;;19.27;17.98;;;;;;;45.91;18.29;100325.09;4993379;28;98334;-82
2023/08/15 09:27:41;;;;;;;19.05;17.55;;;;;;;43.65;19.66;100328.34;4987524;28;96832;-83
2023/08/15 09:30:11;;;;;;;19.95;18.30;;;;;;;42.06;20.85;100333.53;4987243;28;97095;-83
2023/08/15 09:32:41;;;;;;;18.88;17.58;;;;;;;40.75;22.11;100327.91;4986381;28;98960;-83
2023/08/15 09:35:08;;;;;;;19.17;17.80;;;;;;;39.76;23.61;100329.16;4977509;28;98576;-83
2023/08/15 09:37:34;;;;;;;18.02;16.83;;;;;;;39.14;24.37;100325.06;4981163;28;97315;-83
2023/08/15 09:40:01;;;;;;;19.00;17.80;;;;;;;38.93;24.22;100318.28;4976351;28;96861;-83
2023/08/15 09:42:27;;;;;;;18.80;17.55;;;;;;;38.48;25.07;100321.56;4978119;28;99374;-82
2023/08/15 09:44:53;;;;;;;19.08;17.77;;;;;;;37.75;25.94;100322.56;4992721;28;98636;-82
2023/08/15 09:47:19;;;;;;;18.20;17.02;;;;;;;37.12;26.38;100325.59;4962290;28;97349;-82
2023/08/15 09:49:44;;;;;;;19.80;18.27;;;;;;;36.82;26.87;100329.03;4975831;28;96836;-82
2023/08/15 09:52:11;;;;;;;18.83;17.23;;;;;;;36.37;27.88;100340.09;4990194;28;98794;-82
2023/08/15 09:54:37;;;;;;;18.83;17.42;;;;;;;36.09;27.76;100339.66;4970079;28;98452;-82
2023/08/15 09:57:02;;;;;;;18.98;17.38;;;;;;;35.34;28.76;100332.78;4985398;28;96823;-82
2023/08/15 09:59:28;;;;;;;18.98;17.58;;;;;;;35.73;28.56;100330.16;4985683;28;96854;-82
2023/08/15 10:01:55;;;;;;;19.20;17.73;;;;;;;35.81;28.56;100335.34;4982799;28;99086;-83
2023/08/15 10:04:22;;;;;;;18.30;17.15;;;;;;;35.49;28.99;100337.13;4984886;28;98757;-82
2023/08/15 10:06:49;;;;;;;19.40;17.92;;;;;;;35.34;29.05;100327.34;4978852;28;96772;-83
2023/08/15 10:09:15;;;;;;;19.80;18.30;;;;;;;35.10;29.88;100323.38;4974642;28;96876;-82
2023/08/15 10:11:44;;;;;;;19.95;18.35;;;;;;;35.11;29.59;100329.66;4975183;28;99182;-82
2023/08/15 10:14:13;;;;;;;18.83;17.42;;;;;;;34.84;30.20;100328.84;4992376;28;98693;-82
2023/08/15 10:16:38;;;;;;;18.80;17.67;;;;;;;34.85;29.90;100320.47;4973292;28;96799;-82
2023/08/15 10:19:04;;;;;;;19.20;17.55;;;;;;;34.41;30.81;100324.63;4975021;28;96972;-82
2023/08/15 10:21:52;;;;;;;19.15;17.58;;;;;;;34.84;30.49;100326.94;4992161;28;99099;-82
2023/08/15 10:24:18;;;;;;;18.77;17.45;;;;;;;34.68;30.07;100322.78;4986786;28;98933;-82
2023/08/15 10:26:44;;;;;;;19.17;17.85;;;;;;;34.65;30.50;100322.38;4980664;28;96979;-82
2023/08/15 10:29:09;;;;;;;20.08;18.67;;;;;;;34.62;30.36;100322.78;4992292;28;97196;-82
2023/08/15 10:31:36;;;;;;;19.13;17.83;;;;;;;34.69;30.93;100331.78;4978573;28;98739;-83
2023/08/15 10:34:03;;;;;;;19.08;17.70;;;;;;;34.48;31.43;100330.91;4980488;28;98538;-82
2023/08/15 10:36:30;;;;;;;18.52;17.17;;;;;;;34.77;30.99;100319.84;4976760;28;96728;-82
2023/08/15 10:38:56;;;;;;;18.67;17.23;;;;;;;34.81;30.72;100323.81;4960252;28;97469;-82
2023/08/15 10:41:21;;;;;;;18.10;16.70;;;;;;;34.88;30.79;100314.59;4974258;28;98666;-82
2023/08/15 10:43:48;;;;;;;17.50;16.33;;;;;;;34.67;30.90;100323.81;4973177;28;98456;-82
2023/08/15 10:46:18;;;;;;;17.17;15.93;;;;;;;34.51;31.25;100326.94;4991546;28;96837;-82
2023/08/15 10:48:50;;;;;;;;;;;;;;;34.28;31.71;100326.50;4993106;28;96562;-82
2023/08/15 10:51:20;;;;;;;17.38;16.27;;;;;;;33.97;32.51;100317.78;4989773;28;98790;-82
2023/08/15 10:53:49;;;;;;;18.88;17.23;;;;;;;33.87;32.70;100313.81;4990781;28;98947;-82
2023/08/15 10:56:19;;;;;;;18.73;17.10;;;;;;;33.75;32.82;100311.66;4986894;28;96741;-82
2023/08/15 10:58:46;;;;;;;17.88;16.52;;;;;;;33.88;33.19;100312.75;4982037;28;96865;-82
2023/08/15 11:01:15;;;;;;;18.58;17.27;;;;;;;33.79;33.08;100307.47;4977318;28;99414;-82
2023/08/15 11:03:42;;;;;;;18.40;17.30;;;;;;;33.71;33.25;100318.53;4988900;28;98896;-82
2023/08/15 11:06:12;;;;;;;18.90;17.05;;;;;;;33.56;33.18;100317.88;4974994;28;96759;-82